sensor_id;sensor_type;location;lat;lon;timestamp;P1;durP1;ratioP1;P2;durP2;ratioP2
58758;SDS011;46777;47.482;19.054;2022-10-23T00:01:58;25.48;;;23.08;;
58758;SDS011;46777;47.482;19.054;2022-10-23T00:04:18;25.73;;;23.38;;
58758;SDS011;46777;47.482;19.054;2022-10-23T00:07:03;25.30;;;22.95;;
58758;SDS011;46777;47.482;19.054;2022-10-23T00:09:47;25.80;;;23.38;;
58758;SDS011;46777;47.482;19.054;2022-10-23T00:12:32;27.60;;;24.88;;
58758;SDS011;46777;47.482;19.054;2022-10-23T00:15:18;26.05;;;23.40;;
58758;SDS011;46777;47.482;19.054;2022-10-23T00:18:03;25.85;;;23.55;;
58758;SDS011;46777;47.482;19.054;2022-10-23T00:20:47;24.65;;;22.15;;
58758;SDS011;46777;47.482;19.054;2022-10-23T00:23:31;25.70;;;23.40;;
58758;SDS011;46777;47.482;19.054;2022-10-23T00:26:16;25.15;;;22.85;;
58758;SDS011;46777;47.482;19.054;2022-10-23T00:29:00;26.02;;;23.63;;
58758;SDS011;46777;47.482;19.054;2022-10-23T00:31:44;25.80;;;23.50;;
58758;SDS011;46777;47.482;19.054;2022-10-23T00:34:29;27.00;;;24.40;;
58758;SDS011;46777;47.482;19.054;2022-10-23T00:37:13;26.67;;;24.27;;
58758;SDS011;46777;47.482;19.054;2022-10-23T00:39:57;27.33;;;24.73;;
58758;SDS011;46777;47.482;19.054;2022-10-23T00:42:41;26.70;;;24.30;;
58758;SDS011;46777;47.482;19.054;2022-10-23T00:45:27;26.15;;;23.77;;
58758;SDS011;46777;47.482;19.054;2022-10-23T00:48:11;27.48;;;24.98;;
58758;SDS011;46777;47.482;19.054;2022-10-23T00:50:56;26.65;;;24.25;;
58758;SDS011;46777;47.482;19.054;2022-10-23T00:53:40;25.70;;;23.50;;
58758;SDS011;46777;47.482;19.054;2022-10-23T00:56:26;26.92;;;24.52;;
58758;SDS011;46777;47.482;19.054;2022-10-23T00:59:11;26.98;;;24.38;;
58758;SDS011;46777;47.482;19.054;2022-10-23T01:01:55;26.52;;;24.02;;
58758;SDS011;46777;47.482;19.054;2022-10-23T01:04:40;27.70;;;25.25;;
58758;SDS011;46777;47.482;19.054;2022-10-23T01:07:27;26.23;;;23.73;;
58758;SDS011;46777;47.482;19.054;2022-10-23T01:13:14;26.42;;;24.02;;
58758;SDS011;46777;47.482;19.054;2022-10-23T01:16:07;25.77;;;23.48;;
58758;SDS011;46777;47.482;19.054;2022-10-23T01:19:00;27.23;;;24.83;;
58758;SDS011;46777;47.482;19.054;2022-10-23T01:22:35;26.45;;;24.15;;
58758;SDS011;46777;47.482;19.054;2022-10-23T01:24:55;26.17;;;23.88;;
58758;SDS011;46777;47.482;19.054;2022-10-23T01:27:41;28.20;;;25.55;;
58758;SDS011;46777;47.482;19.054;2022-10-23T01:30:28;26.88;;;24.42;;
58758;SDS011;46777;47.482;19.054;2022-10-23T01:33:14;25.90;;;23.58;;
58758;SDS011;46777;47.482;19.054;2022-10-23T01:36:02;27.30;;;24.95;;
58758;SDS011;46777;47.482;19.054;2022-10-23T01:38:50;25.95;;;23.65;;
58758;SDS011;46777;47.482;19.054;2022-10-23T01:41:38;26.05;;;23.75;;
58758;SDS011;46777;47.482;19.054;2022-10-23T01:47:08;26.95;;;24.60;;
58758;SDS011;46777;47.482;19.054;2022-10-23T01:49:54;27.20;;;24.70;;
58758;SDS011;46777;47.482;19.054;2022-10-23T01:52:39;26.15;;;23.75;;
58758;SDS011;46777;47.482;19.054;2022-10-23T01:55:23;26.67;;;24.35;;
58758;SDS011;46777;47.482;19.054;2022-10-23T01:58:08;26.95;;;24.45;;
58758;SDS011;46777;47.482;19.054;2022-10-23T02:00:53;25.52;;;23.23;;
58758;SDS011;46777;47.482;19.054;2022-10-23T02:03:39;26.20;;;23.90;;
58758;SDS011;46777;47.482;19.054;2022-10-23T02:06:25;25.60;;;23.40;;
58758;SDS011;46777;47.482;19.054;2022-10-23T02:09:09;27.15;;;24.67;;
58758;SDS011;46777;47.482;19.054;2022-10-23T02:11:57;27.33;;;24.77;;
58758;SDS011;46777;47.482;19.054;2022-10-23T02:15:46;26.52;;;24.23;;
58758;SDS011;46777;47.482;19.054;2022-10-23T02:20:47;27.35;;;24.75;;
58758;SDS011;46777;47.482;19.054;2022-10-23T02:26:34;27.23;;;24.77;;
58758;SDS011;46777;47.482;19.054;2022-10-23T02:29:29;25.75;;;23.48;;
58758;SDS011;46777;47.482;19.054;2022-10-23T02:32:13;25.80;;;23.55;;
58758;SDS011;46777;47.482;19.054;2022-10-23T02:34:58;25.67;;;23.27;;
58758;SDS011;46777;47.482;19.054;2022-10-23T02:37:42;28.40;;;25.88;;
58758;SDS011;46777;47.482;19.054;2022-10-23T02:41:02;27.80;;;25.30;;
58758;SDS011;46777;47.482;19.054;2022-10-23T02:47:00;25.52;;;23.33;;
58758;SDS011;46777;47.482;19.054;2022-10-23T02:53:11;25.92;;;23.50;;
58758;SDS011;46777;47.482;19.054;2022-10-23T03:01:33;29.13;;;26.55;;
58758;SDS011;46777;47.482;19.054;2022-10-23T03:04:20;29.30;;;26.50;;
58758;SDS011;46777;47.482;19.054;2022-10-23T03:07:09;27.70;;;25.33;;
58758;SDS011;46777;47.482;19.054;2022-10-23T03:09:54;28.98;;;26.38;;
58758;SDS011;46777;47.482;19.054;2022-10-23T03:12:38;27.35;;;24.77;;
58758;SDS011;46777;47.482;19.054;2022-10-23T03:15:22;27.55;;;25.05;;
58758;SDS011;46777;47.482;19.054;2022-10-23T03:18:07;27.45;;;24.95;;
58758;SDS011;46777;47.482;19.054;2022-10-23T03:20:51;28.15;;;25.65;;
58758;SDS011;46777;47.482;19.054;2022-10-23T03:23:35;28.98;;;26.38;;
58758;SDS011;46777;47.482;19.054;2022-10-23T03:26:19;27.33;;;25.02;;
58758;SDS011;46777;47.482;19.054;2022-10-23T03:29:04;27.63;;;25.13;;
58758;SDS011;46777;47.482;19.054;2022-10-23T03:31:48;27.98;;;25.48;;
58758;SDS011;46777;47.482;19.054;2022-10-23T03:34:32;27.95;;;25.45;;
58758;SDS011;46777;47.482;19.054;2022-10-23T03:37:17;28.58;;;25.73;;
58758;SDS011;46777;47.482;19.054;2022-10-23T03:40:02;28.50;;;26.02;;
58758;SDS011;46777;47.482;19.054;2022-10-23T03:42:47;28.30;;;25.90;;
58758;SDS011;46777;47.482;19.054;2022-10-23T03:45:31;28.63;;;26.23;;
58758;SDS011;46777;47.482;19.054;2022-10-23T03:48:16;29.08;;;26.48;;
58758;SDS011;46777;47.482;19.054;2022-10-23T03:51:00;29.17;;;26.55;;
58758;SDS011;46777;47.482;19.054;2022-10-23T03:53:44;28.23;;;25.67;;
58758;SDS011;46777;47.482;19.054;2022-10-23T03:56:29;26.88;;;24.58;;
58758;SDS011;46777;47.482;19.054;2022-10-23T03:59:13;30.13;;;27.33;;
58758;SDS011;46777;47.482;19.054;2022-10-23T04:01:57;27.48;;;24.98;;
58758;SDS011;46777;47.482;19.054;2022-10-23T04:04:41;27.98;;;25.48;;
58758;SDS011;46777;47.482;19.054;2022-10-23T04:07:26;27.73;;;25.17;;
58758;SDS011;46777;47.482;19.054;2022-10-23T04:10:10;28.48;;;26.08;;
58758;SDS011;46777;47.482;19.054;2022-10-23T04:12:54;28.48;;;25.98;;
58758;SDS011;46777;47.482;19.054;2022-10-23T04:15:38;27.98;;;25.48;;
58758;SDS011;46777;47.482;19.054;2022-10-23T04:18:22;29.33;;;26.70;;
58758;SDS011;46777;47.482;19.054;2022-10-23T04:21:07;28.45;;;25.95;;
58758;SDS011;46777;47.482;19.054;2022-10-23T04:23:51;29.40;;;26.80;;
58758;SDS011;46777;47.482;19.054;2022-10-23T04:26:35;28.17;;;25.65;;
58758;SDS011;46777;47.482;19.054;2022-10-23T04:29:20;27.98;;;25.65;;
58758;SDS011;46777;47.482;19.054;2022-10-23T04:32:07;28.15;;;25.67;;
58758;SDS011;46777;47.482;19.054;2022-10-23T04:34:51;27.80;;;25.33;;
58758;SDS011;46777;47.482;19.054;2022-10-23T04:37:36;27.23;;;24.90;;
58758;SDS011;46777;47.482;19.054;2022-10-23T04:40:20;29.45;;;26.88;;
58758;SDS011;46777;47.482;19.054;2022-10-23T04:43:04;27.00;;;24.63;;
58758;SDS011;46777;47.482;19.054;2022-10-23T04:45:48;26.73;;;24.33;;
58758;SDS011;46777;47.482;19.054;2022-10-23T04:48:33;27.42;;;24.92;;
58758;SDS011;46777;47.482;19.054;2022-10-23T04:51:17;27.08;;;24.67;;
58758;SDS011;46777;47.482;19.054;2022-10-23T04:54:01;27.13;;;24.73;;
58758;SDS011;46777;47.482;19.054;2022-10-23T04:56:46;27.02;;;24.63;;
58758;SDS011;46777;47.482;19.054;2022-10-23T04:59:30;27.27;;;24.80;;
58758;SDS011;46777;47.482;19.054;2022-10-23T05:02:14;25.83;;;23.48;;
58758;SDS011;46777;47.482;19.054;2022-10-23T05:04:58;27.60;;;25.10;;
58758;SDS011;46777;47.482;19.054;2022-10-23T05:07:42;26.73;;;24.42;;
58758;SDS011;46777;47.482;19.054;2022-10-23T05:10:28;26.98;;;24.67;;
58758;SDS011;46777;47.482;19.054;2022-10-23T05:13:12;27.02;;;24.52;;
58758;SDS011;46777;47.482;19.054;2022-10-23T05:15:57;27.35;;;24.95;;
58758;SDS011;46777;47.482;19.054;2022-10-23T05:18:43;26.60;;;24.20;;
58758;SDS011;46777;47.482;19.054;2022-10-23T05:21:28;28.17;;;25.67;;
58758;SDS011;46777;47.482;19.054;2022-10-23T05:24:14;28.88;;;26.38;;
58758;SDS011;46777;47.482;19.054;2022-10-23T05:26:58;28.38;;;25.58;;
58758;SDS011;46777;47.482;19.054;2022-10-23T05:29:42;28.63;;;26.17;;
58758;SDS011;46777;47.482;19.054;2022-10-23T05:32:27;27.38;;;25.02;;
58758;SDS011;46777;47.482;19.054;2022-10-23T05:35:16;29.60;;;26.83;;
58758;SDS011;46777;47.482;19.054;2022-10-23T05:38:02;27.35;;;24.75;;
58758;SDS011;46777;47.482;19.054;2022-10-23T05:40:47;28.63;;;26.05;;
58758;SDS011;46777;47.482;19.054;2022-10-23T05:43:31;28.77;;;26.27;;
58758;SDS011;46777;47.482;19.054;2022-10-23T05:46:15;28.73;;;26.13;;
58758;SDS011;46777;47.482;19.054;2022-10-23T05:49:00;33.58;;;30.25;;
58758;SDS011;46777;47.482;19.054;2022-10-23T05:51:44;31.42;;;28.63;;
58758;SDS011;46777;47.482;19.054;2022-10-23T05:54:28;30.42;;;27.60;;
58758;SDS011;46777;47.482;19.054;2022-10-23T05:57:12;29.02;;;26.30;;
58758;SDS011;46777;47.482;19.054;2022-10-23T05:59:57;28.80;;;26.20;;
58758;SDS011;46777;47.482;19.054;2022-10-23T06:02:41;29.48;;;26.85;;
58758;SDS011;46777;47.482;19.054;2022-10-23T06:05:25;28.92;;;26.33;;
58758;SDS011;46777;47.482;19.054;2022-10-23T06:08:09;28.85;;;26.35;;
58758;SDS011;46777;47.482;19.054;2022-10-23T06:10:53;29.88;;;27.33;;
58758;SDS011;46777;47.482;19.054;2022-10-23T06:13:38;27.90;;;25.40;;
58758;SDS011;46777;47.482;19.054;2022-10-23T06:16:24;29.35;;;26.75;;
58758;SDS011;46777;47.482;19.054;2022-10-23T06:19:10;28.85;;;26.45;;
58758;SDS011;46777;47.482;19.054;2022-10-23T06:21:55;29.17;;;26.63;;
58758;SDS011;46777;47.482;19.054;2022-10-23T06:24:39;28.45;;;25.95;;
58758;SDS011;46777;47.482;19.054;2022-10-23T06:27:23;28.55;;;26.10;;
58758;SDS011;46777;47.482;19.054;2022-10-23T06:30:08;29.48;;;26.95;;
58758;SDS011;46777;47.482;19.054;2022-10-23T06:32:53;29.00;;;26.40;;
58758;SDS011;46777;47.482;19.054;2022-10-23T06:35:37;28.48;;;25.98;;
58758;SDS011;46777;47.482;19.054;2022-10-23T06:38:22;28.35;;;25.85;;
58758;SDS011;46777;47.482;19.054;2022-10-23T06:41:07;29.20;;;26.65;;
58758;SDS011;46777;47.482;19.054;2022-10-23T06:43:54;27.95;;;25.65;;
58758;SDS011;46777;47.482;19.054;2022-10-23T06:46:38;28.42;;;25.92;;
58758;SDS011;46777;47.482;19.054;2022-10-23T06:49:22;28.98;;;26.58;;
58758;SDS011;46777;47.482;19.054;2022-10-23T06:52:07;26.52;;;24.23;;
58758;SDS011;46777;47.482;19.054;2022-10-23T06:54:51;28.13;;;25.58;;
58758;SDS011;46777;47.482;19.054;2022-10-23T06:57:35;28.80;;;26.25;;
58758;SDS011;46777;47.482;19.054;2022-10-23T07:00:19;28.33;;;25.92;;
58758;SDS011;46777;47.482;19.054;2022-10-23T07:03:04;29.05;;;26.40;;
58758;SDS011;46777;47.482;19.054;2022-10-23T07:05:49;27.92;;;25.42;;
58758;SDS011;46777;47.482;19.054;2022-10-23T07:08:34;27.63;;;25.25;;
58758;SDS011;46777;47.482;19.054;2022-10-23T07:11:18;27.02;;;24.63;;
58758;SDS011;46777;47.482;19.054;2022-10-23T07:14:02;27.92;;;25.27;;
58758;SDS011;46777;47.482;19.054;2022-10-23T07:16:46;26.92;;;24.73;;
58758;SDS011;46777;47.482;19.054;2022-10-23T07:19:31;26.83;;;24.60;;
58758;SDS011;46777;47.482;19.054;2022-10-23T07:22:15;26.55;;;24.35;;
58758;SDS011;46777;47.482;19.054;2022-10-23T07:24:59;26.88;;;24.45;;
58758;SDS011;46777;47.482;19.054;2022-10-23T07:27:44;26.55;;;24.48;;
58758;SDS011;46777;47.482;19.054;2022-10-23T07:30:28;26.05;;;23.95;;
58758;SDS011;46777;47.482;19.054;2022-10-23T07:33:12;26.42;;;24.33;;
58758;SDS011;46777;47.482;19.054;2022-10-23T07:35:57;23.45;;;21.55;;
58758;SDS011;46777;47.482;19.054;2022-10-23T07:38:41;24.55;;;22.55;;
58758;SDS011;46777;47.482;19.054;2022-10-23T07:41:25;24.30;;;22.30;;
58758;SDS011;46777;47.482;19.054;2022-10-23T07:44:09;25.15;;;23.05;;
58758;SDS011;46777;47.482;19.054;2022-10-23T07:46:53;26.20;;;23.92;;
58758;SDS011;46777;47.482;19.054;2022-10-23T07:49:37;25.80;;;23.70;;
58758;SDS011;46777;47.482;19.054;2022-10-23T07:52:22;26.17;;;24.00;;
58758;SDS011;46777;47.482;19.054;2022-10-23T07:55:06;24.65;;;22.65;;
58758;SDS011;46777;47.482;19.054;2022-10-23T07:57:50;23.23;;;21.23;;
58758;SDS011;46777;47.482;19.054;2022-10-23T08:00:34;23.40;;;21.50;;
58758;SDS011;46777;47.482;19.054;2022-10-23T08:03:21;21.23;;;19.42;;
58758;SDS011;46777;47.482;19.054;2022-10-23T08:06:06;18.35;;;16.85;;
58758;SDS011;46777;47.482;19.054;2022-10-23T08:08:50;17.65;;;16.15;;
58758;SDS011;46777;47.482;19.054;2022-10-23T08:11:34;17.88;;;16.48;;
58758;SDS011;46777;47.482;19.054;2022-10-23T08:14:18;18.65;;;17.20;;
58758;SDS011;46777;47.482;19.054;2022-10-23T08:17:03;18.00;;;16.50;;
58758;SDS011;46777;47.482;19.054;2022-10-23T08:19:48;17.85;;;16.55;;
58758;SDS011;46777;47.482;19.054;2022-10-23T08:22:32;17.65;;;16.20;;
58758;SDS011;46777;47.482;19.054;2022-10-23T08:25:18;17.58;;;16.23;;
58758;SDS011;46777;47.482;19.054;2022-10-23T08:28:02;17.70;;;16.25;;
58758;SDS011;46777;47.482;19.054;2022-10-23T08:30:46;17.58;;;16.25;;
58758;SDS011;46777;47.482;19.054;2022-10-23T08:33:31;17.70;;;16.23;;
58758;SDS011;46777;47.482;19.054;2022-10-23T08:36:16;17.70;;;16.40;;
58758;SDS011;46777;47.482;19.054;2022-10-23T08:39:01;17.63;;;16.25;;
58758;SDS011;46777;47.482;19.054;2022-10-23T08:41:49;17.05;;;15.65;;
58758;SDS011;46777;47.482;19.054;2022-10-23T08:47:35;17.80;;;16.50;;
58758;SDS011;46777;47.482;19.054;2022-10-23T08:50:32;17.00;;;15.65;;
58758;SDS011;46777;47.482;19.054;2022-10-23T08:53:19;16.15;;;14.85;;
58758;SDS011;46777;47.482;19.054;2022-10-23T08:56:11;16.15;;;14.95;;
58758;SDS011;46777;47.482;19.054;2022-10-23T09:04:47;16.45;;;15.05;;
58758;SDS011;46777;47.482;19.054;2022-10-23T09:07:39;17.70;;;16.20;;
58758;SDS011;46777;47.482;19.054;2022-10-23T09:10:33;17.75;;;16.35;;
58758;SDS011;46777;47.482;19.054;2022-10-23T09:13:39;17.15;;;15.75;;
58758;SDS011;46777;47.482;19.054;2022-10-23T09:16:41;18.05;;;16.55;;
58758;SDS011;46777;47.482;19.054;2022-10-23T09:19:28;18.35;;;16.92;;
58758;SDS011;46777;47.482;19.054;2022-10-23T09:22:14;18.23;;;16.73;;
58758;SDS011;46777;47.482;19.054;2022-10-23T09:24:58;19.30;;;17.80;;
58758;SDS011;46777;47.482;19.054;2022-10-23T09:27:46;18.55;;;17.13;;
58758;SDS011;46777;47.482;19.054;2022-10-23T09:33:23;17.02;;;15.73;;
58758;SDS011;46777;47.482;19.054;2022-10-23T09:38:53;18.05;;;16.60;;
58758;SDS011;46777;47.482;19.054;2022-10-23T09:41:38;20.02;;;18.33;;
58758;SDS011;46777;47.482;19.054;2022-10-23T09:44:26;21.75;;;20.05;;
58758;SDS011;46777;47.482;19.054;2022-10-23T09:47:15;20.42;;;18.83;;
58758;SDS011;46777;47.482;19.054;2022-10-23T09:50:01;18.77;;;17.38;;
58758;SDS011;46777;47.482;19.054;2022-10-23T09:52:47;16.83;;;15.32;;
58758;SDS011;46777;47.482;19.054;2022-10-23T09:55:32;16.08;;;14.85;;
58758;SDS011;46777;47.482;19.054;2022-10-23T09:58:19;15.68;;;14.38;;
58758;SDS011;46777;47.482;19.054;2022-10-23T10:01:03;15.15;;;14.05;;
58758;SDS011;46777;47.482;19.054;2022-10-23T10:03:49;14.65;;;13.55;;
58758;SDS011;46777;47.482;19.054;2022-10-23T10:06:34;15.00;;;13.80;;
58758;SDS011;46777;47.482;19.054;2022-10-23T10:09:18;14.43;;;13.32;;
58758;SDS011;46777;47.482;19.054;2022-10-23T10:12:13;14.20;;;13.10;;
58758;SDS011;46777;47.482;19.054;2022-10-23T10:18:01;15.75;;;14.45;;
58758;SDS011;46777;47.482;19.054;2022-10-23T10:29:22;20.30;;;18.65;;
58758;SDS011;46777;47.482;19.054;2022-10-23T10:44:14;25.20;;;23.10;;
58758;SDS011;46777;47.482;19.054;2022-10-23T10:47:10;28.25;;;25.77;;
58758;SDS011;46777;47.482;19.054;2022-10-23T10:52:44;28.77;;;26.17;;
58758;SDS011;46777;47.482;19.054;2022-10-23T10:55:37;30.50;;;27.67;;
58758;SDS011;46777;47.482;19.054;2022-10-23T11:01:12;32.00;;;29.08;;
58758;SDS011;46777;47.482;19.054;2022-10-23T11:04:00;28.63;;;26.02;;
58758;SDS011;46777;47.482;19.054;2022-10-23T11:06:47;29.45;;;26.75;;
58758;SDS011;46777;47.482;19.054;2022-10-23T11:09:34;28.98;;;26.42;;
58758;SDS011;46777;47.482;19.054;2022-10-23T11:12:25;28.27;;;25.65;;
58758;SDS011;46777;47.482;19.054;2022-10-23T11:15:11;27.80;;;25.40;;
58758;SDS011;46777;47.482;19.054;2022-10-23T11:17:57;25.30;;;23.20;;
58758;SDS011;46777;47.482;19.054;2022-10-23T11:20:50;22.23;;;20.17;;
58758;SDS011;46777;47.482;19.054;2022-10-23T11:23:48;21.33;;;19.52;;
58758;SDS011;46777;47.482;19.054;2022-10-23T11:29:49;18.15;;;16.60;;
58758;SDS011;46777;47.482;19.054;2022-10-23T11:35:51;16.40;;;14.90;;
58758;SDS011;46777;47.482;19.054;2022-10-23T11:38:37;14.52;;;13.40;;
58758;SDS011;46777;47.482;19.054;2022-10-23T11:41:23;14.23;;;13.00;;
58758;SDS011;46777;47.482;19.054;2022-10-23T11:44:23;14.93;;;13.63;;
58758;SDS011;46777;47.482;19.054;2022-10-23T11:52:59;13.32;;;12.32;;
58758;SDS011;46777;47.482;19.054;2022-10-23T11:58:47;14.48;;;13.27;;
58758;SDS011;46777;47.482;19.054;2022-10-23T12:01:42;14.73;;;13.63;;
58758;SDS011;46777;47.482;19.054;2022-10-23T12:04:31;16.75;;;15.35;;
58758;SDS011;46777;47.482;19.054;2022-10-23T12:07:32;16.23;;;14.93;;
58758;SDS011;46777;47.482;19.054;2022-10-23T12:10:30;18.20;;;16.63;;
58758;SDS011;46777;47.482;19.054;2022-10-23T12:13:30;17.48;;;15.93;;
58758;SDS011;46777;47.482;19.054;2022-10-23T12:16:14;19.55;;;17.92;;
58758;SDS011;46777;47.482;19.054;2022-10-23T12:18:59;20.15;;;18.42;;
58758;SDS011;46777;47.482;19.054;2022-10-23T12:21:58;22.63;;;20.63;;
58758;SDS011;46777;47.482;19.054;2022-10-23T12:25:01;21.45;;;19.65;;
58758;SDS011;46777;47.482;19.054;2022-10-23T12:27:48;21.98;;;20.15;;
58758;SDS011;46777;47.482;19.054;2022-10-23T12:39:29;17.63;;;15.98;;
58758;SDS011;46777;47.482;19.054;2022-10-23T12:42:20;17.33;;;15.93;;
58758;SDS011;46777;47.482;19.054;2022-10-23T12:45:18;15.75;;;14.38;;
58758;SDS011;46777;47.482;19.054;2022-10-23T12:48:03;15.80;;;14.40;;
58758;SDS011;46777;47.482;19.054;2022-10-23T12:50:49;15.27;;;14.07;;
58758;SDS011;46777;47.482;19.054;2022-10-23T12:53:33;14.48;;;13.30;;
58758;SDS011;46777;47.482;19.054;2022-10-23T12:56:18;15.38;;;14.18;;
58758;SDS011;46777;47.482;19.054;2022-10-23T12:59:02;13.90;;;12.80;;
58758;SDS011;46777;47.482;19.054;2022-10-23T13:01:48;14.25;;;13.02;;
58758;SDS011;46777;47.482;19.054;2022-10-23T13:04:33;14.35;;;13.25;;
58758;SDS011;46777;47.482;19.054;2022-10-23T13:07:18;14.65;;;13.30;;
58758;SDS011;46777;47.482;19.054;2022-10-23T13:10:04;13.32;;;12.32;;
58758;SDS011;46777;47.482;19.054;2022-10-23T13:12:56;13.43;;;12.32;;
58758;SDS011;46777;47.482;19.054;2022-10-23T13:15:42;14.68;;;13.48;;
58758;SDS011;46777;47.482;19.054;2022-10-23T13:18:27;14.18;;;13.07;;
58758;SDS011;46777;47.482;19.054;2022-10-23T13:21:19;13.57;;;12.45;;
58758;SDS011;46777;47.482;19.054;2022-10-23T13:24:04;14.02;;;12.73;;
58758;SDS011;46777;47.482;19.054;2022-10-23T13:26:48;14.15;;;12.95;;
58758;SDS011;46777;47.482;19.054;2022-10-23T13:29:33;13.80;;;12.65;;
58758;SDS011;46777;47.482;19.054;2022-10-23T13:32:25;14.05;;;12.88;;
58758;SDS011;46777;47.482;19.054;2022-10-23T13:35:19;15.20;;;13.93;;
58758;SDS011;46777;47.482;19.054;2022-10-23T13:38:07;14.43;;;13.23;;
58758;SDS011;46777;47.482;19.054;2022-10-23T13:40:54;14.27;;;13.07;;
58758;SDS011;46777;47.482;19.054;2022-10-23T13:43:38;14.35;;;13.10;;
58758;SDS011;46777;47.482;19.054;2022-10-23T13:46:23;13.55;;;12.38;;
58758;SDS011;46777;47.482;19.054;2022-10-23T13:49:10;14.52;;;13.13;;
58758;SDS011;46777;47.482;19.054;2022-10-23T13:51:54;13.82;;;12.27;;
58758;SDS011;46777;47.482;19.054;2022-10-23T13:54:39;14.05;;;12.68;;
58758;SDS011;46777;47.482;19.054;2022-10-23T13:57:24;13.43;;;12.13;;
58758;SDS011;46777;47.482;19.054;2022-10-23T14:00:09;12.85;;;11.75;;
58758;SDS011;46777;47.482;19.054;2022-10-23T14:02:53;13.70;;;12.50;;
58758;SDS011;46777;47.482;19.054;2022-10-23T14:05:37;14.38;;;12.88;;
58758;SDS011;46777;47.482;19.054;2022-10-23T14:08:21;13.70;;;12.40;;
58758;SDS011;46777;47.482;19.054;2022-10-23T14:11:06;14.40;;;13.10;;
58758;SDS011;46777;47.482;19.054;2022-10-23T14:13:50;13.88;;;12.57;;
58758;SDS011;46777;47.482;19.054;2022-10-23T14:16:35;14.25;;;12.95;;
58758;SDS011;46777;47.482;19.054;2022-10-23T14:19:19;14.48;;;13.18;;
58758;SDS011;46777;47.482;19.054;2022-10-23T14:22:04;15.07;;;13.63;;
58758;SDS011;46777;47.482;19.054;2022-10-23T14:24:48;14.88;;;13.48;;
58758;SDS011;46777;47.482;19.054;2022-10-23T14:27:32;15.43;;;13.90;;
58758;SDS011;46777;47.482;19.054;2022-10-23T14:30:17;15.50;;;14.00;;
58758;SDS011;46777;47.482;19.054;2022-10-23T14:33:01;16.67;;;14.77;;
58758;SDS011;46777;47.482;19.054;2022-10-23T14:35:48;15.98;;;14.48;;
58758;SDS011;46777;47.482;19.054;2022-10-23T14:38:32;16.02;;;14.50;;
58758;SDS011;46777;47.482;19.054;2022-10-23T14:41:17;16.08;;;14.48;;
58758;SDS011;46777;47.482;19.054;2022-10-23T14:44:01;16.42;;;14.80;;
58758;SDS011;46777;47.482;19.054;2022-10-23T14:46:46;16.30;;;14.70;;
58758;SDS011;46777;47.482;19.054;2022-10-23T14:49:30;22.80;;;16.73;;
58758;SDS011;46777;47.482;19.054;2022-10-23T14:52:15;17.35;;;15.65;;
58758;SDS011;46777;47.482;19.054;2022-10-23T14:54:59;16.63;;;15.02;;
58758;SDS011;46777;47.482;19.054;2022-10-23T14:57:44;17.45;;;15.63;;
58758;SDS011;46777;47.482;19.054;2022-10-23T15:00:29;16.90;;;15.27;;
58758;SDS011;46777;47.482;19.054;2022-10-23T15:03:13;16.63;;;15.02;;
58758;SDS011;46777;47.482;19.054;2022-10-23T15:05:57;17.08;;;15.40;;
58758;SDS011;46777;47.482;19.054;2022-10-23T15:08:41;17.30;;;15.70;;
58758;SDS011;46777;47.482;19.054;2022-10-23T15:11:26;18.83;;;17.00;;
58758;SDS011;46777;47.482;19.054;2022-10-23T15:14:10;18.33;;;16.58;;
58758;SDS011;46777;47.482;19.054;2022-10-23T15:16:55;18.60;;;16.88;;
58758;SDS011;46777;47.482;19.054;2022-10-23T15:19:39;20.02;;;18.13;;
58758;SDS011;46777;47.482;19.054;2022-10-23T15:22:23;20.02;;;18.10;;
58758;SDS011;46777;47.482;19.054;2022-10-23T15:25:08;20.17;;;18.35;;
58758;SDS011;46777;47.482;19.054;2022-10-23T15:27:53;18.65;;;16.85;;
58758;SDS011;46777;47.482;19.054;2022-10-23T15:30:37;18.50;;;16.70;;
58758;SDS011;46777;47.482;19.054;2022-10-23T15:33:26;17.42;;;15.82;;
58758;SDS011;46777;47.482;19.054;2022-10-23T15:36:10;18.00;;;16.20;;
58758;SDS011;46777;47.482;19.054;2022-10-23T15:38:55;17.50;;;15.70;;
58758;SDS011;46777;47.482;19.054;2022-10-23T15:41:40;18.52;;;16.73;;
58758;SDS011;46777;47.482;19.054;2022-10-23T15:44:26;17.13;;;15.45;;
58758;SDS011;46777;47.482;19.054;2022-10-23T15:47:10;15.55;;;14.15;;
58758;SDS011;46777;47.482;19.054;2022-10-23T15:49:54;17.27;;;15.57;;
58758;SDS011;46777;47.482;19.054;2022-10-23T15:52:39;22.52;;;16.45;;
58758;SDS011;46777;47.482;19.054;2022-10-23T15:55:23;17.23;;;15.43;;
58758;SDS011;46777;47.482;19.054;2022-10-23T15:58:07;19.33;;;15.63;;
58758;SDS011;46777;47.482;19.054;2022-10-23T16:00:52;17.02;;;15.43;;
58758;SDS011;46777;47.482;19.054;2022-10-23T16:03:36;16.95;;;15.23;;
58758;SDS011;46777;47.482;19.054;2022-10-23T16:06:21;17.67;;;15.98;;
58758;SDS011;46777;47.482;19.054;2022-10-23T16:09:05;17.15;;;15.32;;
58758;SDS011;46777;47.482;19.054;2022-10-23T16:11:49;16.92;;;15.13;;
58758;SDS011;46777;47.482;19.054;2022-10-23T16:14:34;16.65;;;14.93;;
58758;SDS011;46777;47.482;19.054;2022-10-23T16:17:18;16.52;;;14.88;;
58758;SDS011;46777;47.482;19.054;2022-10-23T16:20:02;18.10;;;16.30;;
58758;SDS011;46777;47.482;19.054;2022-10-23T16:22:47;18.02;;;16.15;;
58758;SDS011;46777;47.482;19.054;2022-10-23T16:25:35;18.70;;;16.83;;
58758;SDS011;46777;47.482;19.054;2022-10-23T16:28:20;13.75;;;12.35;;
58758;SDS011;46777;47.482;19.054;2022-10-23T16:31:08;13.73;;;12.40;;
58758;SDS011;46777;47.482;19.054;2022-10-23T16:33:53;11.15;;;10.05;;
58758;SDS011;46777;47.482;19.054;2022-10-23T16:36:37;11.95;;;10.00;;
58758;SDS011;46777;47.482;19.054;2022-10-23T16:39:22;10.82;;;9.82;;
58758;SDS011;46777;47.482;19.054;2022-10-23T16:42:06;11.20;;;9.98;;
58758;SDS011;46777;47.482;19.054;2022-10-23T16:44:50;9.82;;;8.80;;
58758;SDS011;46777;47.482;19.054;2022-10-23T16:47:34;9.77;;;8.82;;
58758;SDS011;46777;47.482;19.054;2022-10-23T16:50:18;9.65;;;8.35;;
58758;SDS011;46777;47.482;19.054;2022-10-23T16:53:03;8.20;;;7.38;;
58758;SDS011;46777;47.482;19.054;2022-10-23T16:55:47;8.68;;;7.88;;
58758;SDS011;46777;47.482;19.054;2022-10-23T16:58:31;8.55;;;7.65;;
58758;SDS011;46777;47.482;19.054;2022-10-23T17:01:17;7.78;;;6.80;;
58758;SDS011;46777;47.482;19.054;2022-10-23T17:04:02;7.47;;;6.68;;
58758;SDS011;46777;47.482;19.054;2022-10-23T17:06:46;8.18;;;7.28;;
58758;SDS011;46777;47.482;19.054;2022-10-23T17:09:30;6.97;;;6.22;;
58758;SDS011;46777;47.482;19.054;2022-10-23T17:12:14;6.57;;;5.97;;
58758;SDS011;46777;47.482;19.054;2022-10-23T17:14:59;6.97;;;6.28;;
58758;SDS011;46777;47.482;19.054;2022-10-23T17:17:44;6.47;;;5.88;;
58758;SDS011;46777;47.482;19.054;2022-10-23T17:20:28;7.05;;;6.35;;
58758;SDS011;46777;47.482;19.054;2022-10-23T17:23:12;6.72;;;5.90;;
58758;SDS011;46777;47.482;19.054;2022-10-23T17:25:56;6.40;;;5.80;;
58758;SDS011;46777;47.482;19.054;2022-10-23T17:28:41;7.57;;;6.82;;
58758;SDS011;46777;47.482;19.054;2022-10-23T17:31:27;7.05;;;6.35;;